createdAt,value
2018-08-09T00:05:28.287Z,19.71
2018-08-09T00:13:49.373Z,19.74
2018-08-09T00:22:10.510Z,19.50
2018-08-09T00:30:31.502Z,19.31
2018-08-09T00:38:52.877Z,19.25
2018-08-09T00:47:13.928Z,19.39
2018-08-09T00:55:34.931Z,19.30
2018-08-09T01:03:55.973Z,19.42
2018-08-09T01:12:17.057Z,19.36
2018-08-09T01:20:38.142Z,19.44
2018-08-09T01:28:59.300Z,19.49
2018-08-09T01:37:20.404Z,19.23
2018-08-09T01:45:41.409Z,18.77
2018-08-09T01:54:02.414Z,18.48
2018-08-09T02:02:23.433Z,18.28
2018-08-09T02:10:44.475Z,17.98
2018-08-09T02:19:05.569Z,17.88
2018-08-09T02:27:26.609Z,17.69
2018-08-09T02:35:47.653Z,17.43
2018-08-09T02:44:08.679Z,17.31
2018-08-09T02:52:29.699Z,16.96
2018-08-09T03:00:50.749Z,16.90
2018-08-09T03:09:12.089Z,17.18
2018-08-09T03:17:33.415Z,17.52
2018-08-09T03:25:54.482Z,17.63
2018-08-09T03:34:15.549Z,17.41
2018-08-09T03:42:36.575Z,17.35
2018-08-09T03:50:57.569Z,17.42
2018-08-09T03:59:18.686Z,17.62
2018-08-09T04:07:39.750Z,17.69
2018-08-09T04:16:00.756Z,17.70
2018-08-09T04:24:21.766Z,18.06
2018-08-09T04:32:42.764Z,18.30
2018-08-09T04:41:03.788Z,18.44
2018-08-09T04:49:24.908Z,18.57
2018-08-09T04:57:45.939Z,18.70
2018-08-09T05:06:06.959Z,18.91
2018-08-09T05:14:27.955Z,19.21
2018-08-09T05:22:49.028Z,19.33
2018-08-09T05:31:10.074Z,19.39
2018-08-09T05:39:31.107Z,19.38
2018-08-09T05:47:52.139Z,19.39
2018-08-09T05:56:13.151Z,19.96
2018-08-09T06:04:34.194Z,20.37
2018-08-09T06:12:55.211Z,20.74
2018-08-09T06:21:16.527Z,21.34
2018-08-09T06:29:37.914Z,22.11
2018-08-09T06:37:58.947Z,22.44
2018-08-09T06:46:19.979Z,22.85
2018-08-09T06:54:40.976Z,23.22
2018-08-09T07:03:01.976Z,23.55
2018-08-09T07:11:23.046Z,23.50
2018-08-09T07:19:44.174Z,23.58
2018-08-09T07:28:05.296Z,23.73
2018-08-09T07:36:26.331Z,23.70
2018-08-09T07:44:47.692Z,23.96
2018-08-09T07:53:08.773Z,24.04
2018-08-09T08:01:29.923Z,24.21
2018-08-09T08:09:51.055Z,25.00
2018-08-09T08:18:12.093Z,25.67
2018-08-09T08:26:33.090Z,26.27
2018-08-09T08:34:54.467Z,26.58
2018-08-09T08:43:15.774Z,26.66
2018-08-09T08:51:36.893Z,27.09
2018-08-09T08:59:58.039Z,27.77
2018-08-09T09:08:19.067Z,28.12
2018-08-09T09:16:40.103Z,27.78
2018-08-09T09:25:01.120Z,28.43
2018-08-09T09:33:22.193Z,28.79
2018-08-09T09:41:44.278Z,28.65
2018-08-09T09:50:05.354Z,29.25
2018-08-09T09:58:26.462Z,29.64
2018-08-09T10:06:47.478Z,29.13
2018-08-09T10:15:08.476Z,29.22
2018-08-09T10:23:29.497Z,29.97
2018-08-09T10:31:50.641Z,30.43
2018-08-09T10:40:11.702Z,30.32
2018-08-09T10:48:32.726Z,30.39
2018-08-09T10:56:53.799Z,31.71
2018-08-09T11:05:14.840Z,32.97
2018-08-09T11:13:35.881Z,32.68
2018-08-09T11:21:56.929Z,32.64
2018-08-09T11:30:18.252Z,33.02
2018-08-09T11:38:39.318Z,32.91
2018-08-09T11:47:00.339Z,33.76
2018-08-09T11:55:21.429Z,35.43
2018-08-09T12:03:42.730Z,36.75
2018-08-09T12:12:04.851Z,37.25
2018-08-09T12:20:25.998Z,37.71
2018-08-09T12:28:48.052Z,37.23
2018-08-09T12:37:09.093Z,35.47
2018-08-09T12:45:31.209Z,33.57
2018-08-09T12:53:52.232Z,32.37
2018-08-09T13:02:13.355Z,32.81
2018-08-09T13:10:36.469Z,32.69
2018-08-09T13:18:57.576Z,32.26
2018-08-09T13:35:50.524Z,31.00
